Baring Plt, Maine
Current Conditions -  °F | °C
As of 1:15 PM on Sunday 25 Jan 2015 (Local Time) from KBHB Reporting Station
Clear Clear  
Wind Chill: 21°   Ceiling: Unl
Heat Index: 30°   Visibility: 10mi
Dew Point: 16°   Wind: 12mph
Humidity: 55%   Direction: 300°WNW
Pressure: 29.49"   Gusts: 24mph
Location:  45.0659°N, 67.4987°W
Report Text: KBHB 251815Z 30010G21KT 10SM CLR M01/M09 A2949 RMK AO1
Loading
Personal Weather Stations






























Interactive Weather Map New forecast layout! Learn more

10-Day Weather Forecast

Advertisements
Track Severe Weather on mobile